Time;durP1;ratioP1;P1;durP2;ratioP2;P2;SDS_P1;SDS_P2;PMS_P1;PMS_P2;Temp;Humidity;BMP_temperature;BMP_pressure;BME280_temperature;BME280_humidity;BME280_pressure;Samples;Min_cycle;Max_cycle;Signal;HPM_P1;HPM_P2
2021/12/26 00:00:12;;;;;;;32.47;19.47;;;;;;;-0.57;100.00;99183.55;1794514;80;21006;-76
2021/12/26 00:02:39;;;;;;;29.67;17.10;;;;;;;-0.58;100.00;99180.06;1794459;80;20990;-78
2021/12/26 00:05:07;;;;;;;29.23;16.93;;;;;;;-0.55;100.00;99187.42;1772470;80;20998;-77
2021/12/26 00:07:34;;;;;;;27.17;16.10;;;;;;;-0.56;100.00;99198.53;1772315;80;20955;-75
2021/12/26 00:10:02;;;;;;;23.90;13.60;;;;;;;-0.56;100.00;99205.67;1794395;80;21522;-77
2021/12/26 00:12:30;;;;;;;22.30;13.07;;;;;;;-0.60;100.00;99217.02;1771821;80;21515;-77
2021/12/26 00:14:57;;;;;;;23.00;13.63;;;;;;;-0.61;100.00;99224.61;1794579;80;21103;-76
2021/12/26 00:17:26;;;;;;;24.77;15.07;;;;;;;-0.61;100.00;99223.28;1794555;80;21480;-77
2021/12/26 00:19:53;;;;;;;29.93;17.60;;;;;;;-0.61;100.00;99221.95;1794263;80;21078;-75
2021/12/26 00:22:20;;;;;;;29.83;18.43;;;;;;;-0.62;100.00;99238.37;1794463;80;21045;-78
2021/12/26 00:24:49;;;;;;;33.07;18.80;;;;;;;-0.65;100.00;99255.86;1794031;80;21053;-76
2021/12/26 00:27:20;;;;;;;28.57;17.37;;;;;;;-0.67;100.00;99268.91;1785197;78;20952;-77
2021/12/26 00:29:47;;;;;;;32.77;17.30;;;;;;;-0.69;100.00;99274.79;1831955;78;20999;-76
2021/12/26 00:32:15;;;;;;;30.87;17.13;;;;;;;-0.72;100.00;99263.94;1831584;78;21555;-80
2021/12/26 00:34:44;;;;;;;24.70;14.47;;;;;;;-0.76;100.00;99257.19;1832019;78;21003;-79
2021/12/26 00:37:11;;;;;;;23.07;13.43;;;;;;;-0.79;100.00;99235.69;1832201;78;21054;-79
2021/12/26 00:39:38;;;;;;;19.37;11.10;;;;;;;-0.83;100.00;99226.77;1832394;78;20972;-79
2021/12/26 00:42:06;;;;;;;16.27;9.17;;;;;;;-0.86;100.00;99217.70;1809146;78;20995;-78
2021/12/26 00:44:38;;;;;;;14.60;7.97;;;;;;;-0.90;100.00;99226.84;1808683;78;21508;-78
2021/12/26 00:47:02;;;;;;;11.80;6.27;;;;;;;-0.93;100.00;99221.80;1828800;78;21038;-77
2021/12/26 00:49:30;;;;;;;12.17;6.03;;;;;;;-1.00;100.00;99232.03;1832434;78;21532;-78
2021/12/26 00:51:57;;;;;;;11.93;6.30;;;;;;;-1.11;100.00;99227.55;1832285;78;20991;-78
2021/12/26 00:54:26;;;;;;;11.57;6.13;;;;;;;-1.20;100.00;99221.13;1832207;78;21007;-78
2021/12/26 00:56:53;;;;;;;11.27;6.40;;;;;;;-1.22;100.00;99213.77;1801662;78;20976;-79
2021/12/26 00:59:20;;;;;;;11.13;5.93;;;;;;;-1.25;100.00;99196.75;1795267;80;21050;-78
2021/12/26 01:01:48;;;;;;;10.70;6.10;;;;;;;-1.28;100.00;99204.94;1795138;80;21531;-79
2021/12/26 01:04:15;;;;;;;13.70;6.47;;;;;;;-1.29;100.00;99215.20;1795237;80;20999;-77
2021/12/26 01:06:49;;;;;;;10.77;6.60;;;;;;;-1.31;100.00;99233.50;1795003;80;21019;-78
2021/12/26 01:09:22;;;;;;;12.33;6.77;;;;;;;-1.34;100.00;99231.94;1794977;80;21051;-77
2021/12/26 01:11:51;;;;;;;12.77;6.83;;;;;;;-1.35;100.00;99239.06;1766333;80;20980;-77
2021/12/26 01:14:16;;;;;;;14.33;7.27;;;;;;;-1.36;100.00;99246.63;1791943;80;20987;-76
2021/12/26 01:16:49;;;;;;;11.25;6.55;;;;;;;-1.38;100.00;99257.84;1648924;86;21070;-78
2021/12/26 01:19:19;;;;;;;13.20;7.47;;;;;;;-1.40;100.00;99266.40;1648487;87;21723;-77
2021/12/26 01:21:47;;;;;;;12.27;7.03;;;;;;;-1.39;100.00;99271.22;1648563;86;21104;-77
2021/12/26 01:24:17;;;;;;;14.00;7.00;;;;;;;-1.40;100.00;99264.20;1648925;86;21025;-76
2021/12/26 01:26:44;;;;;;;10.70;6.73;;;;;;;-1.41;100.00;99268.67;1675325;84;21078;-77
2021/12/26 01:29:13;;;;;;;17.50;9.13;;;;;;;-1.40;100.00;99258.90;1697692;83;21049;-76
2021/12/26 01:31:43;;;;;;;15.17;7.77;;;;;;;-1.41;100.00;99252.76;1697231;83;21054;-77
2021/12/26 01:34:15;;;;;;;12.93;6.85;;;;;;;-1.40;100.00;99255.79;1697287;84;21089;-76
2021/12/26 01:36:47;;;;;;;12.00;7.03;;;;;;;-1.38;100.00;99257.84;1697555;84;21038;-75
2021/12/26 01:39:33;;;;;;;12.77;7.17;;;;;;;-1.37;100.00;99258.19;1697733;83;21034;-77
2021/12/26 01:42:20;;;;;;;15.87;7.77;;;;;;;-1.36;100.00;99259.06;1697253;84;21117;-76
2021/12/26 01:44:49;;;;;;;16.47;8.07;;;;;;;-1.38;100.00;99260.49;1675235;86;21081;-76
2021/12/26 01:47:18;;;;;;;15.87;7.30;;;;;;;-1.40;100.00;99250.48;1665124;85;21049;-76
2021/12/26 01:49:45;;;;;;;12.40;6.30;;;;;;;-1.41;100.00;99243.97;1673625;84;21517;-76
2021/12/26 01:52:13;;;;;;;11.60;5.83;;;;;;;-1.43;100.00;99243.23;1664134;86;21126;-76
2021/12/26 01:54:46;;;;;;;11.33;5.70;;;;;;;-1.48;100.00;99238.75;1673820;86;21106;-76
2021/12/26 01:57:10;;;;;;;10.50;5.70;;;;;;;-1.53;100.00;99240.41;1671389;85;21070;-76
2021/12/26 01:59:40;;;;;;;7.53;4.67;;;;;;;-1.54;100.00;99240.03;1669203;86;20975;-76
2021/12/26 02:02:10;;;;;;;8.55;5.03;;;;;;;-1.56;100.00;99245.48;1674104;86;21353;-78
2021/12/26 02:04:43;;;;;;;9.87;5.47;;;;;;;-1.55;100.00;99254.27;1677313;84;21522;-79
2021/12/26 02:07:11;;;;;;;18.10;7.47;;;;;;;-1.58;100.00;99250.02;1677602;86;21180;-78
2021/12/26 02:09:41;;;;;;;15.13;7.07;;;;;;;-1.60;100.00;99255.08;1677084;86;21058;-78
2021/12/26 02:12:09;;;;;;;15.83;7.87;;;;;;;-1.61;100.00;99258.22;1677012;86;21553;-77
2021/12/26 02:14:37;;;;;;;15.30;8.03;;;;;;;-1.58;100.00;99266.41;1751751;82;20962;-77
2021/12/26 02:17:24;;;;;;;15.20;8.00;;;;;;;-1.58;100.00;99271.23;1752887;82;20974;-77
2021/12/26 02:19:54;;;;;;;11.70;7.07;;;;;;;-1.55;100.00;99267.52;1753022;82;20974;-77
2021/12/26 02:22:28;;;;;;;10.70;6.63;;;;;;;-1.55;100.00;99269.69;1790780;79;21038;-78
2021/12/26 02:27:32;;;;;;;11.20;6.37;;;;;;;-1.55;100.00;99278.97;1790260;78;20998;-77
2021/12/26 02:30:08;;;;;;;10.33;5.90;;;;;;;-1.56;100.00;99279.94;1768010;81;21081;-77
2021/12/26 02:32:36;;;;;;;9.90;5.93;;;;;;;-1.58;100.00;99281.83;1615613;86;21070;-77
2021/12/26 02:35:04;;;;;;;10.20;5.93;;;;;;;-1.59;100.00;99286.79;1637611;88;21070;-77
2021/12/26 02:37:31;;;;;;;9.30;5.77;;;;;;;-1.62;100.00;99296.28;1637584;88;21113;-76
2021/12/26 02:39:59;;;;;;;9.73;5.50;;;;;;;-1.61;100.00;99294.02;1637307;88;21042;-78
2021/12/26 02:42:27;;;;;;;8.77;5.53;;;;;;;-1.62;100.00;99292.80;1637413;88;21050;-77
2021/12/26 02:44:54;;;;;;;9.07;5.30;;;;;;;-1.63;100.00;99291.95;1637341;88;21049;-78
2021/12/26 02:47:42;;;;;;;10.37;5.73;;;;;;;-1.63;100.00;99294.61;1637210;86;21137;-76
2021/12/26 02:50:21;;;;;;;9.43;5.30;;;;;;;-1.62;100.00;99297.61;1632464;88;21164;-77
2021/12/26 02:52:48;;;;;;;9.67;5.73;;;;;;;-1.61;100.00;99294.02;1591260;90;21115;-77
2021/12/26 02:55:18;;;;;;;10.07;5.97;;;;;;;-1.60;100.00;99288.22;1587445;90;21075;-78
2021/12/26 02:57:52;;;;;;;8.67;5.20;;;;;;;-1.60;100.00;99281.59;1585975;90;21042;-78
2021/12/26 03:00:23;;;;;;;8.43;4.87;;;;;;;-1.61;100.00;99283.41;1565140;92;21065;-79
2021/12/26 03:02:53;;;;;;;9.50;5.07;;;;;;;-1.62;100.00;99287.48;1565232;92;21650;-78
2021/12/26 03:05:20;;;;;;;8.70;5.10;;;;;;;-1.65;100.00;99299.64;1565453;92;21062;-78
2021/12/26 03:07:47;;;;;;;9.33;4.53;;;;;;;-1.66;100.00;99301.94;1565229;92;21058;-79
2021/12/26 03:10:21;;;;;;;8.03;4.90;;;;;;;-1.69;100.00;99299.02;1565391;92;21130;-78
2021/12/26 03:12:46;;;;;;;8.77;4.87;;;;;;;-1.70;100.00;99295.14;1568710;90;21082;-78
2021/12/26 03:15:15;;;;;;;9.03;4.80;;;;;;;-1.72;100.00;99301.42;1565355;92;21190;-77
2021/12/26 03:17:43;;;;;;;9.60;4.93;;;;;;;-1.73;100.00;99302.36;1565200;92;21130;-78
2021/12/26 03:20:12;;;;;;;10.17;5.27;;;;;;;-1.75;100.00;99304.28;1565356;91;21076;-78
2021/12/26 03:22:39;;;;;;;8.47;4.83;;;;;;;-1.77;100.00;99307.53;1565367;92;21090;-78
2021/12/26 03:25:13;;;;;;;10.17;5.07;;;;;;;-1.80;100.00;99308.23;1585496;90;21086;-78
2021/12/26 03:27:41;;;;;;;9.70;5.17;;;;;;;-1.83;100.00;99313.74;1571664;91;21651;-78
2021/12/26 03:30:11;;;;;;;11.37;6.20;;;;;;;-1.83;100.00;99303.14;1599847;89;21040;-78
2021/12/26 03:32:40;;;;;;;13.17;6.33;;;;;;;-1.85;100.00;99294.46;1584157;89;21080;-78
2021/12/26 03:35:09;;;;;;;11.47;6.20;;;;;;;-1.88;100.00;99291.53;1604727;89;21087;-78
2021/12/26 03:37:40;;;;;;;18.90;9.93;;;;;;;-1.93;100.00;99295.86;1584012;89;21068;-78
2021/12/26 03:40:10;;;;;;;31.73;17.37;;;;;;;-1.96;100.00;99295.23;1601969;89;21093;-77
2021/12/26 03:42:37;;;;;;;41.23;21.50;;;;;;;-1.99;100.00;99299.42;1604874;89;21120;-78
2021/12/26 03:45:05;;;;;;;33.47;17.37;;;;;;;-2.03;100.00;99304.58;1605005;89;21128;-78
2021/12/26 03:47:32;;;;;;;36.17;20.37;;;;;;;-2.09;100.00;99315.10;1633975;86;21018;-77
2021/12/26 03:50:03;;;;;;;26.57;14.63;;;;;;;-2.15;100.00;99325.66;1746766;81;21027;-77
2021/12/26 03:52:30;;;;;;;24.47;12.80;;;;;;;-2.19;100.00;99333.95;1770349;81;21050;-77
2021/12/26 03:54:58;;;;;;;24.17;12.53;;;;;;;-2.26;100.00;99333.52;1770904;81;20987;-78
2021/12/26 03:57:25;;;;;;;19.80;9.60;;;;;;;-2.29;100.00;99322.65;1769924;81;21104;-76
2021/12/26 03:59:52;;;;;;;20.50;9.73;;;;;;;-2.29;100.00;99331.92;1745060;81;21025;-77
2021/12/26 04:02:19;;;;;;;25.10;12.17;;;;;;;-2.32;100.00;99325.98;1767964;81;21010;-76
2021/12/26 04:04:46;;;;;;;24.83;12.13;;;;;;;-2.40;100.00;99341.58;1768142;81;20963;-78
2021/12/26 04:07:13;;;;;;;29.50;13.63;;;;;;;-2.48;100.00;99327.52;1768012;81;21502;-77
2021/12/26 04:09:40;;;;;;;25.17;12.67;;;;;;;-2.54;100.00;99349.14;1767971;81;21045;-76
2021/12/26 04:12:09;;;;;;;27.27;12.80;;;;;;;-2.58;100.00;99337.91;1767892;81;21092;-76
2021/12/26 04:14:36;;;;;;;21.93;10.47;;;;;;;-2.61;100.00;99348.70;1767945;81;20989;-76
2021/12/26 04:17:03;;;;;;;18.47;8.57;;;;;;;-2.67;100.00;99359.23;1767789;81;21014;-76
2021/12/26 04:19:31;;;;;;;22.10;10.00;;;;;;;-2.75;100.00;99364.19;1744945;81;21506;-76
2021/12/26 04:21:58;;;;;;;21.97;10.33;;;;;;;-2.81;100.00;99368.58;1767847;81;21061;-78
2021/12/26 04:24:25;;;;;;;21.27;9.83;;;;;;;-2.84;100.00;99354.70;1768001;80;21013;-77
2021/12/26 04:26:52;;;;;;;17.83;8.13;;;;;;;-2.87;100.00;99358.39;1787532;78;21043;-75
2021/12/26 04:29:19;;;;;;;17.43;8.33;;;;;;;-2.90;100.00;99360.78;1812346;78;20987;-76
2021/12/26 04:31:46;;;;;;;23.33;10.77;;;;;;;-2.95;100.00;99360.23;1844264;78;21014;-76
2021/12/26 04:34:14;;;;;;;24.87;10.97;;;;;;;-2.99;100.00;99357.43;1811613;78;21003;-76
2021/12/26 04:36:42;;;;;;;41.07;17.23;;;;;;;-3.03;100.00;99366.98;1843889;78;21054;-77
2021/12/26 04:39:09;;;;;;;22.67;10.43;;;;;;;-3.02;100.00;99375.30;1844240;78;20972;-77
2021/12/26 04:41:36;;;;;;;38.47;15.50;;;;;;;-3.06;100.00;99358.30;1844142;78;20963;-77
2021/12/26 04:44:08;;;;;;;18.03;7.97;;;;;;;-3.08;100.00;99362.85;1838840;78;20987;-76
2021/12/26 04:46:54;;;;;;;23.87;9.90;;;;;;;-3.11;100.00;99369.66;1844040;78;20986;-77
2021/12/26 04:49:23;;;;;;;28.13;11.33;;;;;;;-3.12;100.00;99369.75;1839201;78;20979;-77
2021/12/26 04:51:51;;;;;;;75.00;28.53;;;;;;;-3.11;100.00;99384.69;1844402;78;20995;-77
2021/12/26 04:54:19;;;;;;;42.70;17.70;;;;;;;-3.11;100.00;99394.78;1844600;78;21452;-77
2021/12/26 04:56:47;;;;;;;31.80;13.80;;;;;;;-3.11;100.00;99400.55;1826617;78;21010;-77
2021/12/26 04:59:16;;;;;;;14.67;7.87;;;;;;;-3.11;100.00;99400.07;1820964;79;21006;-77
2021/12/26 05:01:43;;;;;;;15.40;7.70;;;;;;;-3.08;100.00;99410.91;1821042;79;21022;-77
2021/12/26 05:04:10;;;;;;;15.93;7.53;;;;;;;-3.08;100.00;99420.17;1796071;79;21022;-80
2021/12/26 05:06:37;;;;;;;16.03;8.47;;;;;;;-3.06;100.00;99427.56;1823411;79;21022;-82
2021/12/26 05:09:05;;;;;;;14.53;7.80;;;;;;;-3.05;100.00;99414.69;1822616;79;21078;-82
2021/12/26 05:11:33;;;;;;;15.77;7.83;;;;;;;-3.04;100.00;99412.43;1822422;79;21011;-82
2021/12/26 05:14:02;;;;;;;16.20;9.10;;;;;;;-3.03;100.00;99425.17;1832046;76;21010;-83
2021/12/26 05:16:31;;;;;;;20.70;12.03;;;;;;;-3.04;100.00;99429.63;1816231;79;21051;-82
2021/12/26 05:19:01;;;;;;;23.97;13.77;;;;;;;-3.05;100.00;99439.81;1814163;79;21026;-80
2021/12/26 05:21:28;;;;;;;19.30;10.30;;;;;;;-3.06;100.00;99455.33;1813953;79;21023;-82
2021/12/26 05:23:55;;;;;;;17.17;9.73;;;;;;;-3.09;100.00;99459.00;1813679;79;20999;-82
2021/12/26 05:26:22;;;;;;;13.43;7.50;;;;;;;-3.12;100.00;99461.84;1760623;80;20986;-81
2021/12/26 05:28:49;;;;;;;16.27;8.87;;;;;;;-3.18;100.00;99459.60;1736765;83;21035;-82
2021/12/26 05:31:16;;;;;;;17.70;9.70;;;;;;;-3.20;100.00;99464.14;1710957;83;21094;-78
2021/12/26 05:33:44;;;;;;;16.30;7.43;;;;;;;-3.19;100.00;99451.76;1736572;83;21059;-80
2021/12/26 05:36:12;;;;;;;17.40;9.93;;;;;;;-3.22;100.00;99454.14;1712693;83;21055;-78
2021/12/26 05:38:41;;;;;;;15.50;8.77;;;;;;;-3.27;100.00;99453.10;1737760;83;21067;-78
2021/12/26 05:41:17;;;;;;;16.20;9.20;;;;;;;-3.27;100.00;99453.58;1737521;83;21082;-79
2021/12/26 05:43:46;;;;;;;17.60;8.97;;;;;;;-3.26;100.00;99467.16;1655134;87;21087;-78
2021/12/26 05:46:15;;;;;;;16.17;7.47;;;;;;;-3.25;100.00;99463.10;1654770;87;21098;-79
2021/12/26 05:48:44;;;;;;;18.40;10.07;;;;;;;-3.21;100.00;99458.95;1655348;87;21082;-79
2021/12/26 05:51:13;;;;;;;19.50;9.30;;;;;;;-3.25;100.00;99472.36;1651903;87;21031;-79
2021/12/26 05:53:42;;;;;;;22.60;12.40;;;;;;;-3.26;100.00;99465.84;1651839;87;21102;-78
2021/12/26 05:56:13;;;;;;;20.00;10.73;;;;;;;-3.28;100.00;99476.51;1643609;87;21095;-79
2021/12/26 05:58:41;;;;;;;20.60;11.88;;;;;;;-3.25;100.00;99471.52;1633945;87;21118;-79
2021/12/26 06:01:09;;;;;;;20.87;11.47;;;;;;;-3.24;100.00;99475.84;1652184;87;21130;-78
2021/12/26 06:03:38;;;;;;;24.17;14.70;;;;;;;-3.19;100.00;99499.36;1652568;87;21023;-79
2021/12/26 06:06:05;;;;;;;31.73;18.07;;;;;;;-3.16;100.00;99517.69;1652321;87;21022;-79
2021/12/26 06:08:34;;;;;;;30.67;18.33;;;;;;;-3.14;100.00;99541.75;1649424;87;21059;-78
2021/12/26 06:11:01;;;;;;;214.67;125.83;;;;;;;-3.15;100.00;99567.84;1652129;87;21102;-79
2021/12/26 06:13:32;;;;;;;210.23;118.20;;;;;;;-3.18;100.00;99586.54;1634425;87;21214;-78
2021/12/26 06:16:00;;;;;;;132.27;71.53;;;;;;;-3.18;100.00;99577.77;1652631;87;21102;-77
2021/12/26 06:18:32;;;;;;;29.13;15.00;;;;;;;-3.17;100.00;99579.45;1651858;86;21007;-78
2021/12/26 06:21:18;;;;;;;37.73;21.13;;;;;;;-3.20;100.00;99584.95;1689220;84;21076;-78
2021/12/26 06:23:52;;;;;;;36.23;18.20;;;;;;;-3.27;100.00;99569.93;1709446;84;21115;-78
2021/12/26 06:26:23;;;;;;;44.37;21.07;;;;;;;-3.29;100.00;99551.51;1590449;90;21146;-79
2021/12/26 06:28:52;;;;;;;47.33;21.13;;;;;;;-3.28;100.00;99545.73;1599471;88;21596;-77
2021/12/26 06:31:21;;;;;;;81.27;44.10;;;;;;;-3.26;100.00;99546.04;1560202;92;21101;-78
2021/12/26 06:33:49;;;;;;;278.40;130.43;;;;;;;-3.23;100.00;99553.40;1491863;96;21111;-78
2021/12/26 06:36:27;;;;;;;112.27;59.10;;;;;;;-3.24;100.00;99577.64;1490828;96;21115;-79
2021/12/26 06:39:13;;;;;;;75.33;44.47;;;;;;;-3.26;100.00;99576.89;1490902;96;21111;-68
2021/12/26 06:41:58;;;;;;;43.27;22.37;;;;;;;-3.29;100.00;99584.56;1487501;96;21149;-77
2021/12/26 06:44:39;;;;;;;42.43;27.47;;;;;;;-3.31;100.00;99592.19;1470527;98;21110;-77
2021/12/26 06:47:08;;;;;;;34.00;20.57;;;;;;;-3.34;100.00;99597.21;1470444;98;21095;-76
2021/12/26 06:49:37;;;;;;;39.17;22.70;;;;;;;-3.31;100.00;99596.16;1470724;98;21110;-77
2021/12/26 06:52:07;;;;;;;40.23;23.30;;;;;;;-3.32;100.00;99598.44;1470743;98;21111;-74
2021/12/26 06:54:40;;;;;;;33.70;18.87;;;;;;;-3.29;100.00;99600.91;1470498;98;21182;-76
2021/12/26 06:57:09;;;;;;;38.30;18.45;;;;;;;-3.26;100.00;99601.56;1470593;98;21106;-77
2021/12/26 06:59:36;;;;;;;39.77;18.53;;;;;;;-3.26;100.00;99600.25;1453185;98;21179;-77
2021/12/26 07:02:03;;;;;;;34.87;18.50;;;;;;;-3.26;100.00;99603.34;1470809;98;21140;-75
2021/12/26 07:04:36;;;;;;;40.80;20.20;;;;;;;-3.24;100.00;99600.13;1504471;95;21101;-77
2021/12/26 07:07:04;;;;;;;41.80;19.50;;;;;;;-3.16;100.00;99609.77;1513690;94;21106;-80
2021/12/26 07:09:31;;;;;;;44.73;21.50;;;;;;;-3.12;100.00;99620.53;1563640;91;21107;-79
2021/12/26 07:12:00;;;;;;;45.00;22.13;;;;;;;-3.10;100.00;99617.80;1601024;88;21046;-78
2021/12/26 07:14:29;;;;;;;38.80;20.53;;;;;;;-3.07;100.00;99607.03;1586689;89;21082;-80
2021/12/26 07:16:58;;;;;;;37.77;19.27;;;;;;;-3.08;100.00;99622.06;1547809;91;21018;-77
2021/12/26 07:19:26;;;;;;;40.30;19.53;;;;;;;-3.05;100.00;99622.33;1567650;87;21058;-80
2021/12/26 07:21:53;;;;;;;39.83;20.57;;;;;;;-3.00;100.00;99624.22;1612143;89;21078;-80
2021/12/26 07:24:20;;;;;;;42.00;21.67;;;;;;;-2.95;100.00;99627.44;1611928;89;21082;-77
2021/12/26 07:26:47;;;;;;;55.03;31.00;;;;;;;-2.91;100.00;99638.68;1590875;89;21079;-81
2021/12/26 07:29:33;;;;;;;47.13;26.30;;;;;;;-2.88;100.00;99630.08;1592609;89;21015;-82
2021/12/26 07:32:00;;;;;;;42.07;22.73;;;;;;;-2.83;100.00;99628.92;1591200;89;21095;-82
2021/12/26 07:34:28;;;;;;;45.07;24.40;;;;;;;-2.77;100.00;99618.81;1611993;89;21100;-81
2021/12/26 07:36:58;;;;;;;39.77;19.33;;;;;;;-2.71;100.00;99622.87;1591318;89;21088;-80
2021/12/26 07:39:27;;;;;;;38.40;19.23;;;;;;;-2.68;100.00;99633.27;1609390;89;21048;-81
2021/12/26 07:42:09;;;;;;;51.67;26.53;;;;;;;-2.65;100.00;99633.08;1612439;89;21079;-80
2021/12/26 07:44:49;;;;;;;45.47;22.47;;;;;;;-2.63;100.00;99639.61;1592405;90;21086;-81
2021/12/26 07:47:27;;;;;;;43.27;21.60;;;;;;;-2.65;100.00;99634.89;1613330;89;21104;-80
2021/12/26 07:49:56;;;;;;;47.57;24.00;;;;;;;-2.61;100.00;99633.73;1616040;89;20997;-80
2021/12/26 07:52:45;;;;;;;45.33;20.63;;;;;;;-2.60;100.00;99628.80;1568684;92;21083;-80
2021/12/26 07:55:31;;;;;;;61.77;31.90;;;;;;;-2.59;100.00;99644.59;1568691;90;21091;-82
2021/12/26 07:58:17;;;;;;;45.73;22.17;;;;;;;-2.60;100.00;99648.66;1568809;92;21091;-77
2021/12/26 08:01:04;;;;;;;44.13;20.70;;;;;;;-2.60;100.00;99647.33;1568292;92;21084;-80
2021/12/26 08:03:39;;;;;;;39.63;18.43;;;;;;;-2.59;100.00;99651.69;1565090;90;21104;-81
2021/12/26 08:06:20;;;;;;;39.87;19.13;;;;;;;-2.60;100.00;99650.85;1568113;92;21056;-79
2021/12/26 08:08:52;;;;;;;47.10;22.03;;;;;;;-2.62;100.00;99662.02;1568092;92;21079;-79
2021/12/26 08:11:19;;;;;;;44.47;21.57;;;;;;;-2.64;100.00;99673.14;1579563;90;21063;-79
2021/12/26 08:13:46;;;;;;;40.37;19.90;;;;;;;-2.69;100.00;99681.39;1589320;90;21620;-80
2021/12/26 08:16:14;;;;;;;39.03;16.60;;;;;;;-2.70;100.00;99675.70;1589278;90;21047;-79
2021/12/26 08:18:41;;;;;;;35.40;16.27;;;;;;;-2.69;100.00;99690.66;1589037;90;21128;-78
2021/12/26 08:21:08;;;;;;;29.00;14.10;;;;;;;-2.72;100.00;99700.10;1625887;87;21554;-81
2021/12/26 08:23:36;;;;;;;25.80;13.30;;;;;;;-2.71;100.00;99697.84;1656013;84;21062;-80
2021/12/26 08:26:03;;;;;;;23.23;11.70;;;;;;;-2.67;100.00;99696.70;1775734;79;21002;-79
2021/12/26 08:28:30;;;;;;;28.03;16.10;;;;;;;-2.59;100.00;99692.23;1774742;79;21056;-80
2021/12/26 08:30:57;;;;;;;21.70;12.13;;;;;;;-2.51;100.00;99685.16;1773820;80;20993;-79
2021/12/26 08:33:24;;;;;;;20.77;10.07;;;;;;;-2.52;100.00;99682.13;1786985;80;21032;-78
2021/12/26 08:35:52;;;;;;;31.83;18.17;;;;;;;-2.55;100.00;99689.80;1786962;80;20969;-80
2021/12/26 08:38:22;;;;;;;53.40;33.93;;;;;;;-2.55;100.00;99690.25;1787063;79;21021;-80
2021/12/26 08:40:50;;;;;;;181.70;109.83;;;;;;;-2.55;100.00;99692.90;1787086;79;20981;-79
2021/12/26 08:43:17;;;;;;;132.30;82.43;;;;;;;-2.61;100.00;99693.30;1773244;80;21005;-80
2021/12/26 08:45:44;;;;;;;32.63;20.17;;;;;;;-2.62;100.00;99697.75;1774422;80;21035;-80
2021/12/26 08:48:11;;;;;;;20.03;10.80;;;;;;;-2.65;100.00;99703.70;1787407;80;21005;-81
2021/12/26 08:50:39;;;;;;;19.87;9.70;;;;;;;-2.73;100.00;99706.81;1773773;79;21021;-79
2021/12/26 08:53:08;;;;;;;22.83;11.27;;;;;;;-2.80;100.00;99708.97;1785796;80;21005;-79
2021/12/26 08:55:35;;;;;;;20.07;9.70;;;;;;;-2.84;100.00;99721.19;1792149;79;20982;-78
2021/12/26 08:58:05;;;;;;;19.60;10.23;;;;;;;-2.88;100.00;99717.39;1812259;78;21030;-78
2021/12/26 09:00:32;;;;;;;23.23;13.40;;;;;;;-2.91;100.00;99726.83;1825503;78;21040;-78
2021/12/26 09:03:00;;;;;;;30.37;17.13;;;;;;;-2.90;100.00;99723.26;1841902;78;21006;-79
2021/12/26 09:05:27;;;;;;;28.40;17.73;;;;;;;-2.91;100.00;99724.67;1815223;78;20990;-79
2021/12/26 09:07:54;;;;;;;28.53;18.73;;;;;;;-2.93;100.00;99725.23;1811885;78;21046;-79
2021/12/26 09:10:22;;;;;;;22.57;12.83;;;;;;;-2.86;100.00;99729.21;1809443;78;21020;-79
2021/12/26 09:12:52;;;;;;;22.30;12.63;;;;;;;-2.84;100.00;99726.00;1813986;78;21400;-79
2021/12/26 09:15:20;;;;;;;23.37;12.80;;;;;;;-2.85;100.00;99724.31;1704610;83;21017;-80
2021/12/26 09:17:47;;;;;;;31.43;17.93;;;;;;;-2.81;100.00;99728.46;1704336;84;21056;-78
2021/12/26 09:20:15;;;;;;;32.13;18.73;;;;;;;-2.81;100.00;99727.14;1704054;84;21068;-79
2021/12/26 09:22:42;;;;;;;37.23;18.97;;;;;;;-2.81;100.00;99732.91;1704767;84;21648;-79
2021/12/26 09:25:11;;;;;;;38.40;18.37;;;;;;;-2.81;100.00;99724.49;1680682;84;21990;-80
2021/12/26 09:27:38;;;;;;;34.17;16.57;;;;;;;-2.78;100.00;99732.70;1709742;81;21054;-80
2021/12/26 09:30:07;;;;;;;35.77;18.80;;;;;;;-2.73;100.00;99722.20;1719640;82;21045;-80
2021/12/26 09:32:35;;;;;;;35.17;20.47;;;;;;;-2.64;100.00;99722.59;1744322;82;21042;-80
2021/12/26 09:35:03;;;;;;;40.40;19.93;;;;;;;-2.56;100.00;99724.31;1744729;82;21062;-80
2021/12/26 09:37:30;;;;;;;35.77;18.93;;;;;;;-2.53;100.00;99726.77;1719157;82;21085;-81
2021/12/26 09:39:59;;;;;;;40.60;18.13;;;;;;;-2.55;100.00;99734.81;1719791;82;21050;-79
2021/12/26 09:42:26;;;;;;;35.33;16.63;;;;;;;-2.54;100.00;99729.03;1744656;82;21034;-79
2021/12/26 09:44:53;;;;;;;36.47;16.83;;;;;;;-2.57;100.00;99731.86;1721288;82;21010;-80
2021/12/26 09:47:23;;;;;;;37.57;17.80;;;;;;;-2.57;100.00;99735.83;1721396;82;21002;-80
2021/12/26 09:49:50;;;;;;;34.40;18.67;;;;;;;-2.56;100.00;99742.36;1745559;82;21029;-80
2021/12/26 09:52:18;;;;;;;62.87;41.67;;;;;;;-2.56;100.00;99744.16;1719937;82;21093;-80
2021/12/26 09:54:46;;;;;;;42.77;27.43;;;;;;;-2.54;100.00;99743.11;1744912;82;21107;-80
2021/12/26 09:57:14;;;;;;;38.63;20.53;;;;;;;-2.54;100.00;99748.89;1745154;82;20994;-80
2021/12/26 09:59:43;;;;;;;37.87;23.03;;;;;;;-2.51;100.00;99752.67;1721536;82;21026;-80
2021/12/26 10:02:13;;;;;;;40.87;24.83;;;;;;;-2.44;100.00;99741.20;1721588;82;21010;-80
2021/12/26 10:04:41;;;;;;;53.80;33.27;;;;;;;-2.42;100.00;99741.98;1745561;82;21033;-80
2021/12/26 10:07:18;;;;;;;54.23;32.57;;;;;;;-2.40;100.00;99746.70;1720700;82;20966;-78
2021/12/26 10:09:50;;;;;;;37.63;20.03;;;;;;;-2.40;100.00;99754.66;1735674;83;21045;-79
2021/12/26 10:12:20;;;;;;;32.27;15.97;;;;;;;-2.42;100.00;99753.42;1767866;78;21021;-79
2021/12/26 10:14:50;;;;;;;27.10;12.97;;;;;;;-2.39;100.00;99743.97;1803665;78;21013;-79
2021/12/26 10:20:08;;;;;;;22.50;10.30;;;;;;;-2.35;100.00;99756.06;1765991;81;21005;-80
2021/12/26 10:22:38;;;;;;;22.40;10.40;;;;;;;-2.31;100.00;99752.75;1706412;84;21037;-80
2021/12/26 10:25:10;;;;;;;21.83;10.43;;;;;;;-2.24;100.00;99748.77;1706712;84;21033;-78
2021/12/26 10:27:40;;;;;;;25.43;11.33;;;;;;;-2.22;100.00;99752.65;1703629;83;21068;-79
2021/12/26 10:30:11;;;;;;;22.60;11.13;;;;;;;-2.22;100.00;99751.32;1669280;86;21068;-79
2021/12/26 10:32:39;;;;;;;23.83;12.33;;;;;;;-2.21;100.00;99752.55;1651005;86;21060;-79
2021/12/26 10:35:10;;;;;;;25.30;11.77;;;;;;;-2.15;100.00;99746.02;1648989;87;21032;-79
2021/12/26 10:37:45;;;;;;;23.83;11.73;;;;;;;-2.07;100.00;99749.03;1594809;90;21117;-78
2021/12/26 10:40:19;;;;;;;24.67;11.90;;;;;;;-1.96;100.00;99757.63;1535176;94;21110;-80
2021/12/26 10:42:55;;;;;;;21.43;10.50;;;;;;;-1.81;100.00;99757.09;1535487;94;21114;-79
2021/12/26 10:45:28;;;;;;;19.80;9.87;;;;;;;-1.69;100.00;99756.30;1531482;94;21644;-79
2021/12/26 10:48:06;;;;;;;21.37;10.48;;;;;;;-1.62;100.00;99760.25;1531540;94;21131;-79
2021/12/26 10:50:37;;;;;;;18.70;8.60;;;;;;;-1.67;100.00;99770.30;1531191;92;21607;-79
2021/12/26 10:53:06;;;;;;;22.30;12.43;;;;;;;-1.67;100.00;99783.56;1531056;94;21129;-78
2021/12/26 10:58:20;;;;;;;67.13;49.17;;;;;;;-1.76;100.00;99790.30;1517228;95;21094;-80
2021/12/26 11:00:53;;;;;;;34.18;23.02;;;;;;;-1.78;100.00;99800.64;1519327;94;21091;-80
2021/12/26 11:03:24;;;;;;;29.95;16.40;;;;;;;-1.82;100.00;99798.66;1504573;94;21125;-79
2021/12/26 11:05:54;;;;;;;23.83;12.27;;;;;;;-1.83;100.00;99808.03;1482801;97;21285;-77
2021/12/26 11:08:32;;;;;;;23.83;12.40;;;;;;;-1.82;100.00;99811.08;1477009;97;21113;-78
2021/12/26 11:11:01;;;;;;;18.00;8.27;;;;;;;-1.73;100.00;99821.92;1478041;97;21108;-78
2021/12/26 11:13:31;;;;;;;19.83;7.97;;;;;;;-1.66;100.00;99821.06;1475405;96;21114;-77
2021/12/26 11:16:04;;;;;;;16.67;7.57;;;;;;;-1.62;100.00;99835.81;1483648;95;21093;-77
2021/12/26 11:18:31;;;;;;;21.37;8.90;;;;;;;-1.62;100.00;99834.98;1503255;95;21605;-77
2021/12/26 11:21:01;;;;;;;26.97;10.37;;;;;;;-1.60;100.00;99842.35;1504409;95;21085;-78
2021/12/26 11:23:31;;;;;;;21.83;9.93;;;;;;;-1.65;100.00;99839.98;1503223;94;21109;-77
2021/12/26 11:26:10;;;;;;;20.73;9.80;;;;;;;-1.65;100.00;99843.12;1504092;95;21077;-78
2021/12/26 11:28:40;;;;;;;22.23;11.53;;;;;;;-1.59;100.00;99856.84;1490042;93;21090;-78
2021/12/26 11:31:14;;;;;;;21.93;10.93;;;;;;;-1.53;100.00;99856.43;1518263;94;21623;-75